KBIV

West Michigan Regional Airport

Holland, Michigan, USA
METAR KBIV 250453Z AUTO 17003KT 10SM CLR 18/13 A3004 RMK AO2 SLP169 T01780133 402720106
Observed Flight Rules
May-25 @ 04:53 UTC (22 minutes ago) Visual Flight Rules
Wind Visibility Clouds
170° at 3 knots 10 miles
  • Clear skies
Temperatures Readings
Current 18°C / 64°F
Dewpoint 13°C / 55°F
Humidity 73%
Altimeter 30.04" Hg
Pressure 1016.9 hPa
Elevation 208
METAR KBIV 250453Z AUTO 17003KT 10SM CLR 18/13 A3004 RMK AO2 SLP169 T01780133 402720106
Observed Flight Rules
May-25 @ 04:53 UTC
(22 minutes ago)
VFR
Wind Visibility
170° at 3 knots 10 miles
Clouds
  • Clear skies
Temperature Dewpoint
18°C / 64°F 13°C / 55°F
Humidity Altimeter Pressure
73% 30.04" Hg 1016.9 hPa